This is the latest recevied weather packets stored in our database for station/object KY4LEX. If no packets are shown the sender has not sent any weather packets the latest 10 day(s).
| Time | Temp. | Humidity | Pressure | Rain* | Wind** | Luminosity | Snow |
|---|---|---|---|---|---|---|---|
| 1777409138 | 25.56° C | 59% | 1020 hPa | 0 mm | - | 366 W/m² | - |
| 1777408530 | 26.11° C | 57% | 1020.1 hPa | 0 mm | - | 429 W/m² | - |
| 1777408230 | 25.56° C | 59% | 1020.1 hPa | 0 mm | - | 454 W/m² | - |
| 1777407926 | 24.44° C | 61% | 1020 hPa | 0 mm | - | 431 W/m² | - |
| 1777407623 | 25° C | 60% | 1020.4 hPa | 0 mm | - | 110 W/m² | - |
| 1777407323 | 25° C | 62% | 1020.4 hPa | 0 mm | - | 163 W/m² | - |
| 1777406719 | 24.44° C | 65% | 1020.2 hPa | 0 mm | - | 175 W/m² | - |
| 1777406414 | 24.44° C | 63% | 1020.4 hPa | 0 mm | - | 175 W/m² | - |
| 1777405506 | 24.44° C | 63% | 1020.8 hPa | 0 mm | - | 175 W/m² | - |
| 1777404901 | 24.44° C | 65% | 1020.8 hPa | 0 mm | - | 654 W/m² | - |
| 1777404598 | 23.89° C | 66% | 1020.9 hPa | 0 mm | - | 665 W/m² | - |
| 1777404295 | 24.44° C | 64% | 1020.7 hPa | 0 mm | - | 144 W/m² | - |
| 1777403991 | 25° C | 67% | 1020.5 hPa | 0 mm | - | 180 W/m² | - |
| 1777403686 | 24.44° C | 67% | 1020.5 hPa | 0 mm | - | 664 W/m² | - |
| 1777403384 | 23.89° C | 68% | 1020.4 hPa | 0 mm | - | 323 W/m² | - |
| 1777403079 | 23.89° C | 68% | 1020.3 hPa | 0 mm | - | 720 W/m² | - |
| 1777401266 | 22.78° C | 76% | 1020.7 hPa | 0 mm | - | 136 W/m² | - |
| 1777400051 | 21.67° C | 79% | 1020.9 hPa | 0 mm | - | 265 W/m² | - |
| 1777399143 | 21.67° C | 80% | 1021.1 hPa | 0 mm | - | 244 W/m² | - |
| 1777398233 | 21.67° C | 81% | 1021.3 hPa | 0 mm | - | 249 W/m² | - |
| 1777396716 | 21.11° C | 82% | 1021.4 hPa | 0 mm | - | 223 W/m² | - |
| 1777393984 | 20° C | 88% | 1021.3 hPa | 0 mm | - | 372 W/m² | - |
| 1777392163 | 18.89° C | 93% | 1021.7 hPa | 0 mm | - | 143 W/m² | - |
| 1777390643 | 18.33° C | 96% | 1021.8 hPa | 0 mm | - | 250 W/m² | - |
| 1777389733 | 17.78° C | 95% | 1021.6 hPa | 0 mm | - | 142 W/m² | - |
* Rain latest hour (hover to see other rain measurements)
** Current wind speed in m/s (hover to see current wind gust speed)